Time;durP1;ratioP1;P1;durP2;ratioP2;P2;SDS_P1;SDS_P2;PMS_P1;PMS_P2;Temp;Humidity;BMP_temperature;BMP_pressure;BME280_temperature;BME280_humidity;BME280_pressure;Samples;Min_cycle;Max_cycle;Signal;HPM_P1;HPM_P2
2022/10/14 00:01:17;;;;;;;36.20;33.35;;;;;;;15.15;66.30;101426.88;5014027;28;20061;-75
2022/10/14 00:03:42;;;;;;;36.35;33.13;;;;;;;15.15;66.25;101430.44;5013179;28;20049;-75
2022/10/14 00:06:11;;;;;;;35.47;32.45;;;;;;;15.15;66.48;101437.78;5013706;28;20026;-75
2022/10/14 00:08:37;;;;;;;;;;;;;;;15.14;66.38;101427.94;5013995;28;20430;-75
2022/10/14 00:11:07;;;;;;;37.95;34.20;;;;;;;15.14;66.16;101434.25;5013896;28;19959;-75
2022/10/14 00:13:34;;;;;;;40.30;35.67;;;;;;;15.14;65.96;101430.66;5014347;28;20451;-75
2022/10/14 00:16:00;;;;;;;36.83;33.50;;;;;;;15.14;66.45;101431.53;5013568;28;20030;-74
2022/10/14 00:18:25;;;;;;;36.80;33.40;;;;;;;15.14;66.12;101430.66;5012693;28;20040;-77
2022/10/14 00:20:59;;;;;;;35.92;32.85;;;;;;;15.13;66.11;101424.41;5012296;28;20033;-75
2022/10/14 00:23:26;;;;;;;37.97;34.28;;;;;;;15.13;66.25;101413.53;5013790;28;20030;-77
2022/10/14 00:25:52;;;;;;;34.95;31.98;;;;;;;15.13;66.18;101408.09;5012435;28;20038;-76
2022/10/14 00:28:18;;;;;;;38.17;33.95;;;;;;;15.13;66.50;101405.38;5012693;28;20030;-74
2022/10/14 00:30:58;;;;;;;36.85;33.25;;;;;;;15.14;66.40;101404.31;5013612;28;20056;-74
2022/10/14 00:33:23;;;;;;;34.58;31.55;;;;;;;15.14;66.05;101401.59;5012090;28;20034;-74
2022/10/14 00:36:00;;;;;;;33.90;31.13;;;;;;;15.14;66.17;101395.28;5012796;28;20035;-73
2022/10/14 00:38:26;;;;;;;35.20;32.13;;;;;;;15.14;66.39;101390.69;5013429;28;20058;-76
2022/10/14 00:40:53;;;;;;;34.63;31.58;;;;;;;15.13;66.30;101391.75;4996478;28;20034;-74
2022/10/14 00:43:20;;;;;;;36.83;33.50;;;;;;;15.14;66.23;101390.69;5013843;28;20053;-74
2022/10/14 00:45:45;;;;;;;37.85;34.30;;;;;;;15.14;66.34;101390.69;5012337;28;20038;-74
2022/10/14 00:48:11;;;;;;;37.75;34.40;;;;;;;15.14;66.39;101382.53;5012101;28;20037;-74
2022/10/14 00:50:40;;;;;;;37.40;34.00;;;;;;;15.13;66.38;101380.88;5013721;28;20434;-74
2022/10/14 00:53:06;;;;;;;36.55;33.05;;;;;;;15.15;66.31;101383.34;5013171;28;20385;-74
2022/10/14 00:55:32;;;;;;;34.10;31.20;;;;;;;15.13;66.47;101375.44;5011936;28;20030;-76
2022/10/14 00:58:00;;;;;;;36.55;32.97;;;;;;;15.13;66.32;101367.28;5012854;28;20045;-75
2022/10/14 01:00:25;;;;;;;35.85;32.72;;;;;;;15.13;66.42;101367.28;4996115;28;20124;-75
2022/10/14 01:02:50;;;;;;;37.00;34.00;;;;;;;15.13;66.18;101361.84;5013835;28;20102;-75
2022/10/14 01:05:18;;;;;;;36.15;32.97;;;;;;;15.13;66.56;101356.38;5012231;28;20038;-74
2022/10/14 01:08:12;;;;;;;35.53;32.35;;;;;;;15.13;66.54;101363.75;5013255;28;20088;-74
2022/10/14 01:10:42;;;;;;;35.53;32.63;;;;;;;15.13;66.39;101355.56;5013237;28;20406;-75
2022/10/14 01:13:30;;;;;;;34.15;31.35;;;;;;;15.13;66.55;101356.38;5013115;28;20096;-75
2022/10/14 01:16:05;;;;;;;36.47;33.08;;;;;;;15.13;66.61;101350.13;5013337;28;20033;-75
2022/10/14 01:18:30;;;;;;;34.97;32.00;;;;;;;15.11;66.56;101334.06;5016999;28;20069;-75
2022/10/14 01:21:13;;;;;;;33.42;30.90;;;;;;;15.12;66.24;101340.34;5016868;28;20442;-74
2022/10/14 01:24:10;;;;;;;37.00;33.78;;;;;;;15.11;66.27;101336.78;5017162;28;20448;-76
2022/10/14 01:26:51;;;;;;;35.17;31.88;;;;;;;15.11;66.19;101338.69;5017088;28;20037;-76
2022/10/14 01:29:22;;;;;;;37.50;34.05;;;;;;;15.11;66.17;101331.31;5015491;28;20474;-74
2022/10/14 01:32:05;;;;;;;34.90;31.80;;;;;;;15.10;65.97;101326.16;5016795;28;20042;-74
2022/10/14 01:34:39;;;;;;;33.40;30.80;;;;;;;15.10;66.15;101326.97;5016497;28;20034;-74
2022/10/14 01:37:14;;;;;;;35.00;31.92;;;;;;;15.10;66.31;101326.97;5016600;28;20037;-75
2022/10/14 01:39:54;;;;;;;35.78;32.70;;;;;;;15.10;66.40;101316.09;5016973;28;20057;-75
2022/10/14 01:42:27;;;;;;;33.25;30.52;;;;;;;15.08;66.37;101312.81;5016610;28;20034;-75
2022/10/14 01:45:08;;;;;;;38.60;35.10;;;;;;;15.08;66.18;101318.25;5016674;28;20477;-74
2022/10/14 01:47:35;;;;;;;35.08;32.17;;;;;;;15.09;66.05;101324.50;5016510;28;20478;-74
2022/10/14 01:50:10;;;;;;;34.13;31.30;;;;;;;15.09;66.15;101332.66;5016881;28;20484;-74
2022/10/14 01:52:43;;;;;;;33.75;30.77;;;;;;;15.09;66.36;101332.66;5016143;28;20400;-74
2022/10/14 01:55:14;;;;;;;32.67;29.88;;;;;;;15.08;66.49;101315.53;5015075;28;20141;-74
2022/10/14 01:57:42;;;;;;;34.00;31.27;;;;;;;15.08;66.07;101318.25;5016686;28;20029;-76
2022/10/14 02:00:10;;;;;;;34.25;31.65;;;;;;;15.09;66.10;101313.63;5014917;28;20036;-74
2022/10/14 02:02:36;;;;;;;36.13;32.92;;;;;;;15.09;66.01;101310.91;5015651;28;20061;-75
2022/10/14 02:05:22;;;;;;;33.85;31.27;;;;;;;15.09;66.20;101305.47;4998075;28;20041;-74
2022/10/14 02:07:55;;;;;;;33.40;30.73;;;;;;;15.08;66.13;101306.56;5015623;28;20038;-74
2022/10/14 02:10:27;;;;;;;35.33;32.35;;;;;;;15.08;66.32;101303.81;5016370;28;20034;-74
2022/10/14 02:13:29;;;;;;;36.50;32.97;;;;;;;15.08;66.45;101298.38;5015895;28;20481;-74
2022/10/14 02:16:05;;;;;;;35.78;32.70;;;;;;;15.07;66.50;101303.00;5007711;28;20053;-74
2022/10/14 02:19:00;;;;;;;34.63;31.92;;;;;;;15.06;66.56;101304.06;5016045;28;20034;-74
2022/10/14 02:21:46;;;;;;;34.35;31.85;;;;;;;15.07;66.23;101307.66;4989430;28;20042;-74
2022/10/14 02:24:27;;;;;;;33.90;31.10;;;;;;;15.07;66.22;101313.09;5015807;28;20476;-74
2022/10/14 02:26:56;;;;;;;34.47;31.70;;;;;;;15.06;66.13;101306.78;5015703;28;20030;-74
2022/10/14 02:29:23;;;;;;;34.35;31.65;;;;;;;15.06;66.40;101303.25;5015940;28;20049;-74
2022/10/14 02:31:50;;;;;;;34.35;31.30;;;;;;;15.06;66.16;101301.34;5015548;28;20038;-74
2022/10/14 02:34:19;;;;;;;33.45;30.98;;;;;;;15.07;66.38;101296.75;5016110;28;20026;-74
2022/10/14 02:36:47;;;;;;;32.97;30.45;;;;;;;15.07;66.52;101296.75;5014209;28;20390;-75
2022/10/14 02:39:17;;;;;;;34.10;31.17;;;;;;;15.07;66.36;101288.59;5015510;28;20054;-76
2022/10/14 02:41:43;;;;;;;34.05;31.30;;;;;;;15.06;66.23;101285.03;5015685;28;20062;-77
2022/10/14 02:44:09;;;;;;;33.00;29.85;;;;;;;15.07;66.59;101281.25;5015307;28;20041;-75
2022/10/14 02:46:34;;;;;;;34.90;31.58;;;;;;;15.07;66.79;101280.44;4997844;28;20492;-75
2022/10/14 02:49:00;;;;;;;35.25;32.33;;;;;;;15.06;66.79;101276.06;5015234;28;20535;-75
2022/10/14 02:51:25;;;;;;;36.40;33.10;;;;;;;15.06;66.47;101274.16;5013895;28;20045;-76
2022/10/14 02:53:51;;;;;;;38.88;35.20;;;;;;;15.06;66.86;101267.88;5014627;28;20038;-76
2022/10/14 02:56:17;;;;;;;35.67;32.47;;;;;;;15.06;66.93;101271.44;5013916;28;20036;-76
2022/10/14 02:58:42;;;;;;;35.67;32.58;;;;;;;15.07;66.56;101275.00;5014706;28;20470;-76
2022/10/14 03:01:08;;;;;;;34.53;31.95;;;;;;;15.06;66.70;101268.72;5014727;28;20045;-76
2022/10/14 03:03:33;;;;;;;35.08;32.10;;;;;;;15.07;66.72;101269.56;5015031;28;20549;-76
2022/10/14 03:05:59;;;;;;;35.72;32.42;;;;;;;15.07;66.67;101266.84;5014882;28;20026;-76
2022/10/14 03:08:24;;;;;;;33.70;30.83;;;;;;;15.07;66.61;101258.66;5014219;28;20041;-76
2022/10/14 03:10:49;;;;;;;35.13;31.25;;;;;;;15.07;66.79;101259.47;5013265;28;20108;-76
2022/10/14 03:13:15;;;;;;;37.53;34.35;;;;;;;15.07;66.91;101255.94;5013665;28;20117;-76
2022/10/14 03:15:40;;;;;;;34.05;31.08;;;;;;;15.07;66.98;101251.31;5013671;28;20120;-76
2022/10/14 03:18:06;;;;;;;37.38;33.65;;;;;;;15.08;66.84;101249.41;5014668;28;20041;-76
2022/10/14 03:20:31;;;;;;;36.25;32.88;;;;;;;15.08;66.91;101235.81;5014726;28;20030;-80
2022/10/14 03:22:56;;;;;;;38.53;34.58;;;;;;;15.08;67.10;101246.69;5014622;28;20095;-79
2022/10/14 03:25:23;;;;;;;34.92;31.80;;;;;;;15.07;67.09;101228.75;5013723;28;20120;-74
2022/10/14 03:27:48;;;;;;;34.38;31.33;;;;;;;15.07;67.02;101229.56;4997126;28;20033;-77
2022/10/14 03:30:14;;;;;;;34.15;31.00;;;;;;;15.07;66.91;101229.56;5014090;28;20084;-74
2022/10/14 03:32:39;;;;;;;35.80;32.88;;;;;;;15.06;66.73;101227.91;5014551;28;20144;-75
2022/10/14 03:35:05;;;;;;;35.65;32.67;;;;;;;15.05;66.90;101215.38;5013739;28;20033;-74
2022/10/14 03:37:33;;;;;;;38.85;34.55;;;;;;;15.06;66.88;101221.63;5014340;28;20030;-75
2022/10/14 03:39:59;;;;;;;38.28;34.58;;;;;;;15.07;66.91;101220.56;5012827;28;20037;-75
2022/10/14 03:42:24;;;;;;;33.55;30.63;;;;;;;15.07;67.10;101220.56;5014335;28;20030;-75
2022/10/14 03:44:49;;;;;;;35.78;32.60;;;;;;;15.07;66.84;101220.56;5013136;28;20065;-76
2022/10/14 03:47:15;;;;;;;37.17;33.15;;;;;;;15.06;67.14;101219.72;5013915;28;20030;-75
2022/10/14 03:49:40;;;;;;;37.08;34.05;;;;;;;15.07;67.22;101223.31;5014249;28;20521;-78
2022/10/14 03:52:06;;;;;;;36.78;33.38;;;;;;;15.07;66.77;101223.31;5012848;28;20104;-80
2022/10/14 03:54:31;;;;;;;36.35;33.35;;;;;;;15.06;67.07;101210.75;5012964;28;20030;-77
2022/10/14 03:56:56;;;;;;;36.83;33.55;;;;;;;15.07;67.29;101210.50;5012282;28;20033;-76
2022/10/14 03:59:22;;;;;;;36.20;32.78;;;;;;;15.07;67.27;101215.13;4996625;28;20529;-75
2022/10/14 04:01:47;;;;;;;36.63;33.10;;;;;;;15.06;67.30;101211.56;4996518;28;20391;-75
2022/10/14 04:04:12;;;;;;;38.63;35.10;;;;;;;15.07;67.35;101213.22;5013248;28;20464;-75
2022/10/14 04:06:38;;;;;;;35.83;32.80;;;;;;;15.07;67.31;101207.78;5013662;28;20077;-75
2022/10/14 04:09:04;;;;;;;37.83;34.00;;;;;;;15.07;67.11;101206.97;5014619;28;20038;-76
2022/10/14 04:11:29;;;;;;;40.17;36.33;;;;;;;15.07;66.90;101204.25;5013942;28;20041;-75
2022/10/14 04:13:58;;;;;;;36.75;33.33;;;;;;;15.07;67.27;101204.25;5012828;28;20037;-77
2022/10/14 04:16:24;;;;;;;39.42;35.80;;;;;;;15.06;66.90;101202.59;5013869;28;20034;-76
2022/10/14 04:18:49;;;;;;;34.67;31.42;;;;;;;15.05;67.42;101201.78;5013496;28;20363;-76
2022/10/14 04:21:15;;;;;;;37.15;33.80;;;;;;;15.05;67.26;101193.63;5012723;28;20061;-75
2022/10/14 04:23:40;;;;;;;36.38;33.05;;;;;;;15.06;67.48;101200.69;5012850;28;20474;-76
2022/10/14 04:26:07;;;;;;;37.22;33.90;;;;;;;15.06;67.41;101184.38;5013685;28;20062;-75
2022/10/14 04:28:33;;;;;;;38.20;34.63;;;;;;;15.05;67.09;101184.66;5012676;28;20433;-75
2022/10/14 04:30:58;;;;;;;36.10;32.50;;;;;;;15.05;67.17;101190.09;5013338;28;20033;-76
2022/10/14 04:33:24;;;;;;;38.55;34.00;;;;;;;15.05;67.42;101192.81;4996031;28;20485;-75
2022/10/14 04:35:50;;;;;;;36.63;33.22;;;;;;;15.06;67.06;101194.44;5013001;28;20081;-75
2022/10/14 04:38:15;;;;;;;38.00;34.53;;;;;;;15.05;67.52;101180.00;5013327;28;20061;-76
2022/10/14 04:40:43;;;;;;;35.03;31.92;;;;;;;15.05;67.41;101188.19;5013355;28;20129;-75
2022/10/14 04:43:09;;;;;;;34.92;31.98;;;;;;;15.05;67.23;101184.66;5012962;28;20025;-75
2022/10/14 04:45:34;;;;;;;37.45;33.97;;;;;;;15.05;67.19;101185.47;5014071;28;20030;-76
2022/10/14 04:48:00;;;;;;;35.13;32.15;;;;;;;15.05;67.15;101185.47;5013531;28;20061;-78
2022/10/14 04:50:25;;;;;;;37.63;34.40;;;;;;;15.06;67.21;101181.66;5013458;28;20466;-76
2022/10/14 04:52:50;;;;;;;34.03;31.15;;;;;;;15.05;67.06;101171.03;5016534;28;20367;-75
2022/10/14 04:55:16;;;;;;;35.67;32.63;;;;;;;15.04;67.33;101162.03;5017323;28;20064;-75
2022/10/14 04:57:44;;;;;;;35.72;32.55;;;;;;;15.04;67.23;101162.03;5017338;28;20053;-75
2022/10/14 05:00:11;;;;;;;34.33;31.33;;;;;;;15.05;67.21;101158.25;5015819;28;20525;-76
2022/10/14 05:02:37;;;;;;;35.90;32.80;;;;;;;15.06;67.27;101157.16;5015398;28;20049;-76
2022/10/14 05:05:03;;;;;;;34.20;31.02;;;;;;;15.06;67.18;101157.16;5017135;28;20430;-76
2022/10/14 05:07:29;;;;;;;33.60;30.85;;;;;;;15.05;67.27;101152.81;5017441;28;20120;-75
2022/10/14 05:09:55;;;;;;;32.67;30.20;;;;;;;15.05;67.41;101154.72;5017613;28;20108;-76
2022/10/14 05:12:20;;;;;;;34.42;31.40;;;;;;;15.06;67.15;101156.34;5015959;28;20029;-76
2022/10/14 05:14:45;;;;;;;34.13;31.40;;;;;;;15.06;67.22;101159.06;5017315;28;20119;-76
2022/10/14 05:17:11;;;;;;;32.22;29.77;;;;;;;15.06;67.11;101149.00;5015794;28;20070;-76
2022/10/14 05:19:36;;;;;;;32.85;30.20;;;;;;;15.06;67.15;101154.44;5015713;28;20075;-76
2022/10/14 05:22:01;;;;;;;34.55;31.65;;;;;;;15.07;66.96;101150.66;5015488;28;20401;-77
2022/10/14 05:24:27;;;;;;;34.70;31.90;;;;;;;15.07;67.12;101137.06;5017132;28;20026;-75
2022/10/14 05:26:52;;;;;;;35.08;32.42;;;;;;;15.07;67.18;101137.06;5016842;28;20045;-76
2022/10/14 05:29:18;;;;;;;34.60;31.73;;;;;;;15.07;67.32;101133.53;5015995;28;20044;-75
2022/10/14 05:31:43;;;;;;;33.53;30.65;;;;;;;15.06;67.44;101132.66;5015531;28;20054;-76
2022/10/14 05:34:09;;;;;;;36.55;33.13;;;;;;;15.07;67.29;101128.88;5015433;28;20521;-76
2022/10/14 05:36:35;;;;;;;33.25;30.50;;;;;;;15.08;67.65;101126.97;5016396;28;20034;-77
2022/10/14 05:39:00;;;;;;;31.48;29.02;;;;;;;15.07;67.22;101123.44;4998383;28;20509;-77
2022/10/14 05:41:26;;;;;;;31.67;29.42;;;;;;;15.08;67.46;101118.81;5016742;28;20042;-77
2022/10/14 05:43:51;;;;;;;31.27;29.17;;;;;;;15.08;67.11;101107.94;5016221;28;20029;-74
2022/10/14 05:46:17;;;;;;;33.20;30.80;;;;;;;15.09;67.24;101106.84;5015434;28;20108;-75
2022/10/14 05:48:42;;;;;;;32.25;29.13;;;;;;;15.08;67.38;101105.22;5014824;28;20040;-75
2022/10/14 05:51:08;;;;;;;31.48;29.15;;;;;;;15.07;67.28;101107.13;5016349;28;20030;-75
2022/10/14 05:53:34;;;;;;;32.97;30.58;;;;;;;15.09;67.09;101101.41;4982674;28;20036;-77
2022/10/14 05:56:05;;;;;;;33.15;30.80;;;;;;;15.08;67.43;101111.47;4998707;28;20370;-74
2022/10/14 05:58:30;;;;;;;30.88;28.67;;;;;;;15.08;67.34;101107.94;5015785;28;20435;-75
2022/10/14 06:01:04;;;;;;;29.67;27.73;;;;;;;15.09;67.09;101110.41;5016210;28;20135;-75
2022/10/14 06:03:29;;;;;;;31.73;29.33;;;;;;;15.08;67.21;101103.31;5015809;28;20030;-75
2022/10/14 06:05:55;;;;;;;32.63;30.15;;;;;;;15.08;67.21;101094.34;5016036;28;20034;-75
2022/10/14 06:08:21;;;;;;;31.40;29.02;;;;;;;15.08;66.96;101097.88;4998523;28;20038;-75
2022/10/14 06:10:47;;;;;;;30.80;28.40;;;;;;;15.08;67.12;101084.25;5016042;28;20034;-75
2022/10/14 06:13:13;;;;;;;33.83;30.40;;;;;;;15.07;67.18;101088.06;5015889;28;20033;-75
2022/10/14 06:15:38;;;;;;;31.08;28.90;;;;;;;15.08;66.91;101089.69;5014711;28;20041;-75
2022/10/14 06:18:04;;;;;;;33.53;31.02;;;;;;;15.08;66.99;101091.59;5014547;28;20490;-75
2022/10/14 06:20:30;;;;;;;31.80;29.60;;;;;;;15.08;67.24;101084.25;5014895;28;20419;-75
2022/10/14 06:22:57;;;;;;;33.20;30.73;;;;;;;15.08;67.15;101084.25;4998565;28;20066;-75
2022/10/14 06:25:23;;;;;;;32.65;30.15;;;;;;;15.08;67.31;101086.97;5015730;28;20100;-75
2022/10/14 06:27:48;;;;;;;30.00;27.80;;;;;;;15.09;67.29;101074.19;4997691;28;20483;-76
2022/10/14 06:30:14;;;;;;;33.13;30.75;;;;;;;15.10;67.14;101090.25;5014308;28;20047;-76
2022/10/14 06:32:39;;;;;;;30.88;28.67;;;;;;;15.09;67.33;101091.34;5014520;28;20034;-75
2022/10/14 06:35:05;;;;;;;31.90;29.63;;;;;;;15.09;67.46;101094.06;5015575;28;20026;-75
2022/10/14 06:37:30;;;;;;;32.15;29.85;;;;;;;15.10;67.52;101086.72;4998399;28;20029;-76
2022/10/14 06:39:55;;;;;;;30.30;28.30;;;;;;;15.09;67.74;101094.06;5016024;28;20471;-76
2022/10/14 06:42:21;;;;;;;31.45;29.15;;;;;;;15.09;67.34;101093.22;5015379;28;20049;-77
2022/10/14 06:44:46;;;;;;;30.67;28.63;;;;;;;15.09;67.50;101088.63;5014272;28;20029;-76
2022/10/14 06:47:12;;;;;;;31.85;29.73;;;;;;;15.09;67.76;101088.63;5014221;28;20034;-79
2022/10/14 06:49:37;;;;;;;30.23;28.33;;;;;;;15.08;67.97;101078.81;5015233;28;20037;-77
2022/10/14 06:52:03;;;;;;;31.35;29.13;;;;;;;15.09;67.72;101077.75;4998247;28;20116;-77
2022/10/14 06:54:28;;;;;;;32.15;29.95;;;;;;;15.10;67.67;101067.69;5015156;28;20509;-74
2022/10/14 06:56:53;;;;;;;30.80;28.52;;;;;;;15.10;67.92;101065.78;5015443;28;20073;-74
2022/10/14 06:59:19;;;;;;;34.38;31.75;;;;;;;15.10;67.38;101070.41;5013873;28;20117;-75
2022/10/14 07:01:44;;;;;;;31.45;29.02;;;;;;;15.10;67.50;101054.09;5014144;28;20437;-74
2022/10/14 07:04:09;;;;;;;31.58;29.42;;;;;;;15.09;67.87;101061.44;5015285;28;20034;-75
2022/10/14 07:06:36;;;;;;;31.05;28.95;;;;;;;15.10;67.79;101062.25;5014926;28;20034;-75
2022/10/14 07:09:02;;;;;;;31.48;29.15;;;;;;;15.09;67.55;101063.31;5014888;28;20034;-78
2022/10/14 07:11:27;;;;;;;32.30;29.98;;;;;;;15.09;67.45;101066.03;5014852;28;20048;-78
2022/10/14 07:13:54;;;;;;;30.13;27.92;;;;;;;15.08;67.68;101067.13;5012886;28;20026;-77
2022/10/14 07:16:19;;;;;;;29.52;27.40;;;;;;;15.09;67.54;101077.75;5014946;28;20041;-75
2022/10/14 07:18:45;;;;;;;30.92;28.45;;;;;;;15.09;67.66;101075.03;4997103;28;20038;-77
2022/10/14 07:21:10;;;;;;;32.92;30.30;;;;;;;15.10;67.91;101084.00;5014692;28;20113;-77
2022/10/14 07:23:36;;;;;;;32.50;30.33;;;;;;;15.09;67.55;101079.63;5014857;28;20534;-77
2022/10/14 07:26:01;;;;;;;31.67;29.15;;;;;;;15.09;67.95;101083.19;5014658;28;20030;-78
2022/10/14 07:28:27;;;;;;;32.90;30.33;;;;;;;15.09;68.33;101080.47;5014761;28;20041;-77
2022/10/14 07:31:10;;;;;;;29.58;27.23;;;;;;;15.10;68.24;101073.94;5014545;28;20524;-76
2022/10/14 07:33:38;;;;;;;31.60;29.40;;;;;;;15.11;67.97;101075.56;5013384;28;20400;-79
2022/10/14 07:36:06;;;;;;;30.58;28.48;;;;;;;15.10;67.62;101071.22;5013257;28;20030;-75
2022/10/14 07:38:32;;;;;;;31.30;29.02;;;;;;;15.11;67.89;101069.31;5014167;28;20058;-75
2022/10/14 07:41:00;;;;;;;30.50;28.40;;;;;;;15.11;67.72;101066.59;5014301;28;20152;-77
2022/10/14 07:43:26;;;;;;;32.58;30.17;;;;;;;15.11;67.85;101064.69;5014275;28;20474;-75
2022/10/14 07:45:58;;;;;;;31.50;29.38;;;;;;;15.12;67.80;101066.34;5013109;28;20045;-75
2022/10/14 07:48:24;;;;;;;32.83;30.15;;;;;;;15.13;67.56;101067.97;5014257;28;20030;-76
2022/10/14 07:50:49;;;;;;;30.40;28.15;;;;;;;15.14;68.13;101066.06;5014768;28;20084;-75
2022/10/14 07:53:15;;;;;;;31.10;29.10;;;;;;;15.13;67.99;101065.25;4996575;28;20026;-76
2022/10/14 07:55:50;;;;;;;31.33;28.83;;;;;;;15.15;67.71;101062.25;5013985;28;20108;-77
2022/10/14 07:58:20;;;;;;;31.10;28.60;;;;;;;15.16;67.75;101066.59;5012804;28;20420;-77
2022/10/14 08:00:46;;;;;;;32.42;29.60;;;;;;;15.16;67.97;101061.16;5012713;28;20088;-77
2022/10/14 08:03:12;;;;;;;31.00;28.83;;;;;;;15.18;68.02;101072.63;5012824;28;20037;-75
2022/10/14 08:05:37;;;;;;;32.53;29.98;;;;;;;15.17;67.84;101059.25;5012471;28;20042;-75
2022/10/14 08:08:02;;;;;;;30.90;28.75;;;;;;;15.18;67.87;101058.19;4996122;28;20118;-75
2022/10/14 08:10:28;;;;;;;32.05;29.92;;;;;;;15.19;68.17;101051.66;5013869;28;20390;-75
2022/10/14 08:12:53;;;;;;;32.45;30.05;;;;;;;15.19;68.38;101049.75;4995912;28;20478;-76
2022/10/14 08:15:19;;;;;;;31.60;29.27;;;;;;;15.19;68.24;101052.47;4996218;28;20128;-75
2022/10/14 08:17:44;;;;;;;30.98;28.70;;;;;;;15.20;68.24;101058.75;5012343;28;20034;-76
2022/10/14 08:20:09;;;;;;;31.58;29.40;;;;;;;15.21;67.99;101054.94;5014015;28;20386;-75
2022/10/14 08:22:35;;;;;;;32.63;30.25;;;;;;;15.20;68.32;101056.84;4996138;28;20034;-76
2022/10/14 08:25:01;;;;;;;34.65;31.80;;;;;;;15.21;68.50;101054.94;5012946;28;20080;-75
2022/10/14 08:27:26;;;;;;;33.15;30.13;;;;;;;15.22;68.28;101057.41;5012278;28;20030;-74
2022/10/14 08:29:51;;;;;;;31.63;29.45;;;;;;;15.22;68.50;101053.84;4995850;28;20040;-74
2022/10/14 08:32:17;;;;;;;30.70;28.63;;;;;;;15.23;68.63;101055.50;5012414;28;20040;-74
2022/10/14 08:34:42;;;;;;;32.17;29.98;;;;;;;15.24;68.29;101054.41;5012103;28;20058;-74
2022/10/14 08:37:10;;;;;;;32.72;30.52;;;;;;;15.23;68.32;101050.88;5011892;28;20042;-74
2022/10/14 08:39:35;;;;;;;31.75;29.27;;;;;;;15.24;68.76;101052.50;5013627;28;20156;-74
2022/10/14 08:42:30;;;;;;;31.88;29.65;;;;;;;15.24;68.58;101052.50;5012173;28;20044;-75
2022/10/14 08:45:07;;;;;;;30.38;28.33;;;;;;;15.25;68.23;101056.06;5007774;28;20132;-75
2022/10/14 08:47:40;;;;;;;32.60;30.17;;;;;;;15.25;68.62;101050.59;5013797;28;20030;-74
2022/10/14 08:50:18;;;;;;;32.08;29.65;;;;;;;15.26;68.63;101047.59;5013351;28;20101;-74
2022/10/14 08:53:00;;;;;;;30.92;28.67;;;;;;;15.25;68.50;101045.97;5013296;28;20462;-74
2022/10/14 08:55:29;;;;;;;29.55;27.60;;;;;;;15.27;68.23;101048.41;5012141;28;20037;-75
2022/10/14 08:58:10;;;;;;;33.65;31.40;;;;;;;15.28;68.25;101041.91;5013743;28;20030;-76
2022/10/14 09:00:36;;;;;;;32.30;30.05;;;;;;;15.29;68.33;101038.09;5013203;28;20026;-74
2022/10/14 09:03:07;;;;;;;30.60;28.67;;;;;;;15.30;68.52;101050.63;5011981;28;20041;-74
2022/10/14 09:05:32;;;;;;;32.28;29.77;;;;;;;15.30;68.60;101035.09;5013127;28;20030;-74
2022/10/14 09:07:59;;;;;;;31.02;28.77;;;;;;;15.31;68.48;101035.91;5012175;28;20065;-74
2022/10/14 09:10:35;;;;;;;30.27;28.23;;;;;;;15.31;68.94;101034.00;5012508;28;20034;-74
2022/10/14 09:13:14;;;;;;;29.63;27.50;;;;;;;15.32;68.58;101038.38;5012736;28;20112;-75
2022/10/14 09:15:42;;;;;;;32.38;30.02;;;;;;;15.32;68.67;101034.81;5013075;28;20064;-74
2022/10/14 09:18:41;;;;;;;34.00;31.33;;;;;;;15.33;69.13;101028.31;5012959;28;20030;-74
2022/10/14 09:21:32;;;;;;;30.55;28.33;;;;;;;15.34;68.88;101029.94;5013355;28;20040;-76
2022/10/14 09:24:31;;;;;;;28.98;27.13;;;;;;;15.34;68.31;101019.06;5005722;28;20038;-75
2022/10/14 09:26:59;;;;;;;;;;;;;;;15.34;68.26;101021.78;5013190;28;20386;-75
2022/10/14 09:29:26;;;;;;;27.95;26.25;;;;;;;15.33;68.60;101015.50;5013038;28;19956;-75
2022/10/14 09:31:56;;;;;;;28.50;26.75;;;;;;;15.34;68.13;101019.06;5012370;28;20026;-75
2022/10/14 09:34:32;;;;;;;30.85;28.90;;;;;;;15.35;68.55;101015.25;5013343;28;20030;-75
2022/10/14 09:37:23;;;;;;;30.08;28.27;;;;;;;15.36;68.47;101017.69;5013240;28;20022;-77
2022/10/14 09:39:50;;;;;;;29.48;27.10;;;;;;;15.38;68.44;101019.34;5015477;28;20179;-74
2022/10/14 09:42:25;;;;;;;31.83;29.27;;;;;;;15.38;68.68;101011.19;4998848;28;20128;-74
2022/10/14 09:45:12;;;;;;;28.15;26.50;;;;;;;15.41;68.82;101013.38;5016199;28;20056;-74
2022/10/14 09:48:06;;;;;;;31.67;29.45;;;;;;;15.40;69.05;101018.00;5016441;28;20103;-74
2022/10/14 09:50:37;;;;;;;29.50;27.35;;;;;;;15.42;68.45;101017.72;5015155;28;20038;-75
2022/10/14 09:53:13;;;;;;;30.15;27.98;;;;;;;15.43;69.08;101012.00;5015798;28;20064;-75
2022/10/14 09:55:47;;;;;;;30.33;28.25;;;;;;;15.45;69.17;101011.75;5014345;28;20482;-75
2022/10/14 09:58:16;;;;;;;32.70;30.70;;;;;;;15.45;69.09;101003.59;5015692;28;20485;-75
2022/10/14 10:00:42;;;;;;;32.13;30.13;;;;;;;15.46;68.87;101005.22;5013975;28;20064;-76
2022/10/14 10:03:23;;;;;;;31.58;29.40;;;;;;;15.48;68.96;101008.47;5015722;28;20129;-75
2022/10/14 10:05:59;;;;;;;30.15;28.27;;;;;;;15.50;68.80;101017.22;5016004;28;20037;-75
2022/10/14 10:08:25;;;;;;;29.73;27.92;;;;;;;15.50;68.90;101014.47;5016064;28;20473;-75
2022/10/14 10:11:10;;;;;;;30.17;28.25;;;;;;;15.51;68.74;101008.75;5014610;28;20117;-75
2022/10/14 10:13:45;;;;;;;31.55;29.42;;;;;;;15.51;68.86;101003.31;5015656;28;20474;-75
2022/10/14 10:16:37;;;;;;;31.30;29.20;;;;;;;15.52;69.18;101002.25;5015498;28;20114;-75
2022/10/14 10:19:27;;;;;;;30.42;28.40;;;;;;;15.54;69.36;101000.03;5012354;28;20042;-74
2022/10/14 10:21:53;;;;;;;30.52;28.50;;;;;;;15.55;68.99;101004.41;5014112;28;20025;-73
2022/10/14 10:24:22;;;;;;;30.13;28.15;;;;;;;15.55;69.43;100990.81;5014167;28;20048;-74
2022/10/14 10:26:48;;;;;;;30.10;28.02;;;;;;;15.57;69.04;100987.78;5015555;28;20041;-74
2022/10/14 10:29:34;;;;;;;30.67;28.65;;;;;;;15.58;69.31;100984.00;5015222;28;20037;-73
2022/10/14 10:32:08;;;;;;;31.40;29.60;;;;;;;15.61;69.22;100990.81;5014878;28;20061;-75
2022/10/14 10:35:09;;;;;;;29.30;27.40;;;;;;;15.61;69.16;100982.63;5014281;28;20022;-73
2022/10/14 10:37:49;;;;;;;29.25;27.65;;;;;;;15.62;69.52;100987.78;5012279;28;20117;-74
2022/10/14 10:40:15;;;;;;;30.38;28.42;;;;;;;15.63;69.26;100991.38;5014326;28;20096;-74
2022/10/14 10:43:06;;;;;;;31.88;29.92;;;;;;;15.65;69.52;100991.88;5013663;28;20038;-72
2022/10/14 10:45:47;;;;;;;29.35;27.58;;;;;;;15.65;69.41;100991.88;5013573;28;20022;-74
2022/10/14 10:48:32;;;;;;;29.25;27.38;;;;;;;15.67;69.33;100981.53;5014907;28;20033;-73
2022/10/14 10:51:13;;;;;;;30.23;28.33;;;;;;;15.67;69.54;100992.44;5013928;28;20036;-73
2022/10/14 10:54:22;;;;;;;30.95;28.95;;;;;;;15.68;69.54;100984.00;5014755;28;20036;-74
2022/10/14 10:56:53;;;;;;;32.15;29.67;;;;;;;15.69;69.12;100982.09;4981507;28;20366;-74
2022/10/14 11:00:00;;;;;;;31.15;29.25;;;;;;;15.71;68.84;100985.41;5014713;28;20442;-74
2022/10/14 11:03:02;;;;;;;31.92;29.92;;;;;;;15.71;69.07;100978.03;5011351;28;20099;-73
2022/10/14 11:05:36;;;;;;;30.73;28.73;;;;;;;15.72;68.97;100970.69;5014966;28;20028;-73
2022/10/14 11:14:45;;;;;;;33.15;31.05;;;;;;;15.75;69.03;100968.25;5014489;28;20041;-73
2022/10/14 11:17:46;;;;;;;31.58;29.30;;;;;;;15.76;68.99;100960.91;4937682;29;20035;-74
2022/10/14 11:20:21;;;;;;;33.25;31.05;;;;;;;15.77;69.03;100963.34;5001425;28;20048;-74
2022/10/14 11:23:24;;;;;;;31.95;29.85;;;;;;;15.79;69.04;100957.63;5014273;28;20026;-76
2022/10/14 11:25:56;;;;;;;30.20;28.30;;;;;;;15.78;68.82;100958.72;5012895;28;20030;-76
2022/10/14 11:28:35;;;;;;;33.45;31.30;;;;;;;15.81;68.96;100946.47;5013116;28;20033;-74
2022/10/14 11:31:00;;;;;;;30.48;28.25;;;;;;;15.81;68.73;100950.00;5014288;28;20037;-75